Lake Carroll, Illinois
Current Conditions -  °F | °C
As of 7:15 PM on Saturday 25 Oct 2014 (Local Time) from KSFY Reporting Station
Clear Clear  
Wind Chill: 61°   Ceiling: Unl
Heat Index: 61°   Visibility: 10mi
Dew Point: 32°   Wind: 5mph
Humidity: 34%   Direction: 310°NW
Pressure: 29.99"   Gusts: NA
Location:  42.0719°N, 89.8032°W
Report Text: KSFY 260015Z AUTO 31004KT 10SM CLR 16/00 A2999 RMK AO2 T01610000
Loading
Personal Weather Stations






























Interactive Weather Map
Tropical Storm Tracking
New forecast layout! Learn more

10-Day Weather Forecast

Advertisements
Track Severe Weather on mobile